Pittsburgh International Airport
KPIT : now visible

Airfield :











YOU CAN JOIN US ON...

 
LOGIN :

Register | Disclaimer

   EN    FR    IT 

 









Legend :    VFR   Marginal VFR   IFR   Intensive IFR   Very Intensive IFR
Visi :
Ceiling :
>= 8 km
>= 3000ft
5 to 8 km
1000 to 3000 ft
1500m to 5 km
500 to 1000 ft
800 to 1500m
200 to 500 ft
< 800m
< 200 ft
Symbols :   Thunderstorms  Fog  Heavy snow  Heavy precipitations  Wind > 20 kt






- Airport Elevation : 1203 ft
- IATA code : PIT


KPIT - Pittsburgh International

CURRENT METAR :
  • 030851Z 00000KT 10SM FEW060 BKN140 OVC190 19/13 A3007 RMK AO2 SLP179 T01940133 58001

EXPIRED METARs :
  • 030751Z 18003KT 10SM FEW060 OVC140 18/13 A3007 RMK AO2 SLP180 T01830133
  • 030651Z 29004KT 10SM FEW060 OVC140 19/13 A3008 RMK AO2 SLP184 T01890128

TAF KPIT
Valid from the 03 at 06:00 until the 04 at 12:00 UTC


030520Z 0306/0412 35003KT P6SM BKN200
KZOB FIR / North America



MET'MAP, your aeronautical weather chart ! - Copyright ORBIFLY December 2007 - Disclaimer

ORBIFLY MET'MAP TEAM :

Programming & Development : Alexandra Zaïnal
Original concept : Baudouin d'Aumeries
Technical & hardware support : Manuel Goepfert
Assistance : Marc-Olivier Méhu




SOURCES & CREDITS :

   NOAA       Earth
Advisory